createdAt,value
2018-07-07T00:00:50.745Z,61.20
2018-07-07T00:03:20.465Z,61.70
2018-07-07T00:05:50.616Z,61.90
2018-07-07T00:08:20.595Z,61.60
2018-07-07T00:15:26.084Z,61.70
2018-07-07T00:17:55.190Z,61.80
2018-07-07T00:20:23.828Z,61.80
2018-07-07T00:22:52.373Z,62.40
2018-07-07T00:25:21.883Z,62.30
2018-07-07T00:27:51.049Z,63.30
2018-07-07T00:30:21.136Z,62.30
2018-07-07T00:32:49.924Z,62.40
2018-07-07T00:35:20.869Z,62.90
2018-07-07T00:37:50.325Z,63.00
2018-07-07T00:40:21.008Z,63.30
2018-07-07T00:42:50.223Z,63.00
2018-07-07T00:45:22.008Z,62.80
2018-07-07T00:47:50.665Z,63.30
2018-07-07T00:50:20.705Z,63.90
2018-07-07T00:52:50.487Z,63.50
2018-07-07T00:55:22.085Z,63.70
2018-07-07T00:57:50.867Z,63.30
2018-07-07T01:00:20.527Z,63.50
2018-07-07T01:02:51.971Z,63.50
2018-07-07T01:08:23.718Z,63.40
2018-07-07T01:10:52.213Z,63.60
2018-07-07T01:13:21.025Z,63.60
2018-07-07T01:18:52.696Z,63.90
2018-07-07T01:21:21.116Z,63.40
2018-07-07T01:23:50.781Z,64.40
2018-07-07T01:26:20.649Z,64.40
2018-07-07T01:28:50.480Z,64.40
2018-07-07T01:31:21.185Z,64.10
2018-07-07T01:33:50.396Z,63.60
2018-07-07T01:36:20.381Z,65.20
2018-07-07T01:38:50.580Z,65.00
2018-07-07T01:41:20.699Z,64.90
2018-07-07T01:43:50.660Z,64.70
2018-07-07T01:46:20.928Z,65.00
2018-07-07T01:48:50.173Z,65.00
2018-07-07T01:51:20.660Z,64.50
2018-07-07T01:53:50.595Z,65.00
2018-07-07T01:56:19.863Z,64.40
2018-07-07T01:58:51.435Z,64.80
2018-07-07T02:01:20.517Z,65.50
2018-07-07T02:03:50.450Z,64.60
2018-07-07T02:09:20.854Z,65.40
2018-07-07T02:11:50.411Z,65.60
2018-07-07T02:14:20.375Z,65.60
2018-07-07T02:16:50.756Z,65.50
2018-07-07T02:19:19.737Z,66.10
2018-07-07T02:21:50.225Z,66.10
2018-07-07T02:24:21.976Z,66.30
2018-07-07T02:26:50.758Z,66.10
2018-07-07T02:29:20.266Z,66.80
2018-07-07T02:31:51.130Z,66.40
2018-07-07T02:34:20.711Z,66.90
2018-07-07T02:36:49.372Z,67.10
2018-07-07T02:39:19.924Z,67.00
2018-07-07T02:41:50.197Z,67.10
2018-07-07T02:44:21.747Z,67.50
2018-07-07T02:49:50.931Z,67.30
2018-07-07T02:52:20.883Z,67.30
2018-07-07T02:54:50.569Z,67.50
2018-07-07T02:57:19.093Z,67.10
2018-07-07T02:59:51.147Z,67.50
2018-07-07T03:02:21.037Z,67.00
2018-07-07T03:04:50.726Z,67.70
2018-07-07T03:07:20.599Z,67.40
2018-07-07T03:09:50.276Z,67.90
2018-07-07T03:12:21.250Z,67.60
2018-07-07T03:14:51.159Z,68.00
2018-07-07T03:17:20.609Z,67.60
2018-07-07T03:19:50.301Z,67.80
2018-07-07T03:22:21.035Z,67.60
2018-07-07T03:24:50.952Z,68.00
2018-07-07T03:27:20.841Z,68.30
2018-07-07T03:29:50.499Z,68.30
2018-07-07T03:32:20.751Z,67.90
2018-07-07T03:34:50.263Z,67.80
2018-07-07T03:37:24.354Z,67.60
2018-07-07T03:39:52.986Z,67.90
2018-07-07T03:42:21.590Z,67.30
2018-07-07T03:44:51.008Z,68.00
2018-07-07T03:47:20.637Z,68.20
2018-07-07T03:49:51.004Z,68.10
2018-07-07T03:52:20.874Z,68.30
2018-07-07T03:54:51.025Z,68.40
2018-07-07T03:57:20.724Z,68.60
2018-07-07T03:59:50.826Z,68.80
2018-07-07T04:02:21.190Z,68.60
2018-07-07T04:04:50.883Z,68.70
2018-07-07T04:07:20.661Z,68.90
2018-07-07T04:09:50.500Z,69.00
2018-07-07T04:12:20.432Z,69.10
2018-07-07T04:14:52.114Z,68.80
2018-07-07T04:17:21.006Z,68.60
2018-07-07T04:19:50.648Z,68.90
2018-07-07T04:22:21.215Z,69.00
2018-07-07T04:24:50.995Z,68.40
2018-07-07T04:27:20.753Z,69.00
2018-07-07T04:29:50.323Z,69.50
2018-07-07T04:32:20.393Z,69.20
2018-07-07T04:34:51.901Z,69.00
2018-07-07T04:37:20.556Z,68.00
2018-07-07T04:39:50.414Z,69.00
2018-07-07T04:42:21.216Z,69.20
2018-07-07T04:44:50.854Z,69.40
2018-07-07T04:47:20.748Z,69.10
2018-07-07T04:49:50.428Z,69.60
2018-07-07T04:52:21.118Z,68.90
2018-07-07T04:54:50.702Z,69.90
2018-07-07T04:57:19.169Z,69.60
2018-07-07T04:59:51.616Z,70.10
2018-07-07T05:02:21.162Z,69.70
2018-07-07T05:04:50.910Z,70.50
2018-07-07T05:07:20.952Z,70.30
2018-07-07T05:09:50.961Z,70.30
2018-07-07T05:12:23.461Z,70.00
2018-07-07T05:14:52.132Z,70.70
2018-07-07T05:17:20.928Z,70.70
2018-07-07T05:19:50.718Z,70.40
2018-07-07T05:22:21.466Z,70.70
2018-07-07T05:24:52.328Z,70.50
2018-07-07T05:27:21.934Z,70.10
2018-07-07T05:29:51.459Z,70.50
2018-07-07T05:32:21.257Z,70.50
2018-07-07T05:34:51.312Z,70.30
2018-07-07T05:37:20.881Z,70.50
2018-07-07T05:39:50.932Z,70.50
2018-07-07T05:42:20.729Z,70.50
2018-07-07T05:44:51.284Z,70.80
2018-07-07T05:47:21.235Z,70.50
2018-07-07T05:49:50.935Z,70.90
2018-07-07T05:52:20.846Z,70.50
2018-07-07T05:54:51.273Z,70.70
2018-07-07T05:57:21.164Z,70.80
2018-07-07T05:59:51.017Z,70.90
2018-07-07T06:02:21.498Z,70.80
2018-07-07T06:04:51.351Z,70.70
2018-07-07T06:07:21.590Z,70.30
2018-07-07T06:09:51.397Z,70.60
2018-07-07T06:12:21.044Z,70.30
2018-07-07T06:14:50.728Z,70.40
2018-07-07T06:17:20.896Z,69.80
2018-07-07T06:19:50.539Z,70.50
2018-07-07T06:22:21.234Z,70.00
2018-07-07T06:24:50.969Z,70.00
2018-07-07T06:27:20.640Z,69.70
2018-07-07T06:29:51.152Z,69.90
2018-07-07T06:32:20.804Z,69.40
2018-07-07T06:34:50.815Z,70.30
2018-07-07T06:37:20.924Z,69.20
2018-07-07T06:39:51.607Z,70.50
2018-07-07T06:42:21.309Z,69.80
2018-07-07T06:44:51.389Z,69.20
2018-07-07T06:47:21.241Z,68.90
2018-07-07T06:49:50.701Z,69.00
2018-07-07T06:52:19.434Z,69.20
2018-07-07T06:54:51.579Z,68.90
2018-07-07T06:57:21.197Z,68.90
2018-07-07T06:59:51.156Z,68.80
2018-07-07T07:02:21.363Z,68.80
2018-07-07T07:04:50.971Z,68.00
2018-07-07T07:07:22.670Z,67.50
2018-07-07T07:09:51.343Z,68.00
2018-07-07T07:12:21.481Z,68.20
2018-07-07T07:14:51.732Z,68.20
2018-07-07T07:17:21.385Z,67.60
2018-07-07T07:19:52.307Z,67.90
2018-07-07T07:22:21.393Z,67.20
2018-07-07T07:24:50.361Z,67.10
2018-07-07T07:27:18.996Z,67.50
2018-07-07T07:29:47.593Z,67.40
2018-07-07T07:32:16.040Z,67.10
2018-07-07T07:34:44.862Z,66.90
2018-07-07T07:37:13.391Z,66.90
2018-07-07T07:39:42.169Z,67.60
2018-07-07T07:42:10.588Z,67.30
2018-07-07T07:44:39.011Z,67.30
2018-07-07T07:47:07.529Z,67.30
2018-07-07T07:49:35.998Z,66.80
2018-07-07T07:52:04.450Z,66.60
2018-07-07T07:54:32.692Z,66.40
2018-07-07T07:57:01.147Z,66.40
2018-07-07T07:59:29.822Z,65.80
2018-07-07T08:01:58.432Z,65.40
2018-07-07T08:04:27.067Z,65.60
2018-07-07T08:06:55.649Z,65.40
2018-07-07T08:09:24.627Z,65.30
2018-07-07T08:11:53.685Z,65.50
2018-07-07T08:14:22.876Z,65.20
2018-07-07T08:16:51.797Z,65.40
2018-07-07T08:19:20.700Z,65.10
2018-07-07T08:21:50.224Z,65.10
2018-07-07T08:24:18.859Z,65.20
2018-07-07T08:26:47.265Z,65.20
2018-07-07T08:29:15.616Z,65.10
2018-07-07T08:31:44.024Z,65.30
2018-07-07T08:34:12.369Z,65.30
2018-07-07T08:36:40.641Z,65.00
2018-07-07T08:39:09.144Z,64.10
2018-07-07T08:41:37.696Z,64.20
2018-07-07T08:44:05.964Z,63.70
2018-07-07T08:46:34.466Z,64.00
2018-07-07T08:49:02.893Z,63.20
2018-07-07T08:51:31.637Z,62.90
2018-07-07T08:54:00.043Z,63.00
2018-07-07T08:56:28.418Z,63.40
2018-07-07T08:58:56.635Z,62.90
2018-07-07T09:01:25.251Z,63.00
2018-07-07T09:03:53.628Z,62.10
2018-07-07T09:06:22.299Z,61.90
2018-07-07T09:08:50.702Z,63.00
2018-07-07T09:11:19.034Z,62.80
2018-07-07T09:13:47.361Z,62.10
2018-07-07T09:16:15.791Z,62.70
2018-07-07T09:18:44.182Z,63.10
2018-07-07T09:21:13.524Z,64.00
2018-07-07T09:23:41.818Z,63.80
2018-07-07T09:26:10.331Z,63.60
2018-07-07T09:28:38.676Z,62.50
2018-07-07T09:31:07.521Z,61.80
2018-07-07T09:33:35.948Z,61.60
2018-07-07T09:36:04.235Z,62.90
2018-07-07T09:38:32.651Z,62.40
2018-07-07T09:41:01.066Z,62.10
2018-07-07T09:43:29.408Z,60.90
2018-07-07T09:45:57.836Z,60.30
2018-07-07T09:48:26.187Z,61.10
2018-07-07T09:50:54.660Z,60.70
2018-07-07T09:53:23.223Z,60.90
2018-07-07T09:55:51.602Z,61.70
2018-07-07T09:58:20.093Z,62.20
2018-07-07T10:00:48.496Z,61.30
2018-07-07T10:03:16.840Z,61.30
2018-07-07T10:05:45.217Z,61.10
2018-07-07T10:08:13.648Z,59.00
2018-07-07T10:10:42.036Z,60.40
2018-07-07T10:13:10.311Z,60.60
2018-07-07T10:15:38.700Z,60.10
2018-07-07T10:18:07.069Z,59.90
2018-07-07T10:20:35.377Z,57.90
2018-07-07T10:23:03.675Z,60.00
2018-07-07T10:25:32.221Z,58.70
2018-07-07T10:28:00.548Z,59.80
2018-07-07T10:30:28.907Z,60.90
2018-07-07T10:32:57.453Z,60.40
2018-07-07T10:35:25.806Z,60.40
2018-07-07T10:37:54.151Z,58.60
2018-07-07T10:40:22.548Z,56.60
2018-07-07T10:42:51.031Z,55.80
2018-07-07T10:45:19.831Z,57.50
2018-07-07T10:47:48.116Z,56.80
2018-07-07T10:50:16.452Z,55.40
2018-07-07T10:52:44.784Z,54.40
2018-07-07T10:55:13.110Z,55.40
2018-07-07T10:57:41.472Z,56.50
2018-07-07T11:00:09.798Z,57.20
2018-07-07T11:02:38.205Z,56.80
2018-07-07T11:05:06.712Z,57.20
2018-07-07T11:07:34.940Z,56.40
2018-07-07T11:10:03.352Z,55.10
2018-07-07T11:12:31.655Z,55.10
2018-07-07T11:14:59.892Z,55.00
2018-07-07T11:17:28.208Z,54.50
2018-07-07T11:19:56.530Z,55.20
2018-07-07T11:22:24.890Z,55.30
2018-07-07T11:24:53.170Z,55.10
2018-07-07T11:27:21.516Z,55.10
2018-07-07T11:29:50.223Z,55.10
2018-07-07T11:32:18.530Z,53.40
2018-07-07T11:34:46.827Z,53.40
2018-07-07T11:37:15.192Z,53.20
2018-07-07T11:39:43.551Z,53.00
2018-07-07T11:42:12.152Z,52.40
2018-07-07T11:44:40.494Z,51.90
2018-07-07T11:47:09.041Z,51.20
2018-07-07T11:49:37.328Z,51.30
2018-07-07T11:52:06.055Z,51.80
2018-07-07T11:54:34.464Z,52.70
2018-07-07T11:57:03.733Z,52.30
2018-07-07T11:59:32.212Z,52.20
2018-07-07T12:02:00.654Z,51.20
2018-07-07T12:04:28.956Z,50.70
2018-07-07T12:06:57.215Z,50.70
2018-07-07T12:09:25.538Z,49.10
2018-07-07T12:11:53.869Z,48.90
2018-07-07T12:14:22.303Z,49.00
2018-07-07T12:16:50.772Z,49.10
2018-07-07T12:19:19.141Z,49.50
2018-07-07T12:21:47.545Z,49.30
2018-07-07T12:24:15.953Z,48.10
2018-07-07T12:26:44.738Z,47.50
2018-07-07T12:29:13.086Z,47.50
2018-07-07T12:31:41.561Z,47.00
2018-07-07T12:34:10.002Z,46.70
2018-07-07T12:36:38.548Z,46.70
2018-07-07T12:39:07.321Z,45.30
2018-07-07T12:41:35.737Z,46.00
2018-07-07T12:44:04.181Z,45.80
2018-07-07T12:46:32.682Z,46.70
2018-07-07T12:49:01.163Z,47.00
2018-07-07T12:51:29.658Z,46.10
2018-07-07T12:53:58.004Z,44.10
2018-07-07T12:56:26.369Z,44.20
2018-07-07T12:58:54.837Z,45.00
2018-07-07T13:01:23.227Z,45.50
2018-07-07T13:03:51.669Z,45.90
2018-07-07T13:06:20.244Z,46.20
2018-07-07T13:08:48.872Z,45.80
2018-07-07T13:11:17.603Z,45.30
2018-07-07T13:13:46.158Z,45.80
2018-07-07T13:16:14.832Z,45.20
2018-07-07T13:18:43.408Z,44.60
2018-07-07T13:21:11.946Z,44.80
2018-07-07T13:23:40.541Z,44.50
2018-07-07T13:26:09.044Z,44.20
2018-07-07T13:28:37.643Z,45.10
2018-07-07T13:31:06.236Z,45.90
2018-07-07T13:33:34.801Z,45.10
2018-07-07T13:36:03.412Z,44.90
2018-07-07T13:38:36.240Z,44.10
2018-07-07T13:41:06.071Z,43.50
2018-07-07T13:43:34.452Z,42.90
2018-07-07T13:46:02.803Z,43.80
2018-07-07T13:48:31.308Z,44.10
2018-07-07T13:50:59.709Z,44.70
2018-07-07T13:53:29.290Z,43.90
2018-07-07T13:55:57.881Z,44.30
2018-07-07T13:58:26.706Z,43.80
2018-07-07T14:00:55.425Z,43.40
2018-07-07T14:03:24.268Z,44.20
2018-07-07T14:05:52.977Z,45.00
2018-07-07T14:08:21.960Z,44.20
2018-07-07T14:10:51.298Z,44.20
2018-07-07T14:13:20.981Z,43.60
2018-07-07T14:15:51.153Z,44.00
2018-07-07T14:18:21.933Z,44.40
2018-07-07T14:20:51.594Z,44.20
2018-07-07T14:23:21.562Z,43.30
2018-07-07T14:25:52.308Z,42.70
2018-07-07T14:28:22.028Z,42.90
2018-07-07T14:30:51.223Z,43.80
2018-07-07T14:33:21.968Z,43.90
2018-07-07T14:36:14.178Z,43.60
2018-07-07T14:38:51.367Z,42.60
2018-07-07T14:41:23.407Z,43.60
2018-07-07T14:44:04.147Z,43.50
2018-07-07T14:46:42.634Z,43.90
2018-07-07T14:49:20.816Z,43.60
2018-07-07T14:51:52.477Z,43.30
2018-07-07T14:54:23.273Z,43.80
2018-07-07T14:56:52.792Z,43.00
2018-07-07T14:59:22.526Z,42.90
2018-07-07T15:01:52.303Z,41.80
2018-07-07T15:04:22.990Z,41.90
2018-07-07T15:06:51.829Z,41.90
2018-07-07T15:09:21.840Z,42.20
2018-07-07T15:11:55.470Z,42.30
2018-07-07T15:14:24.074Z,41.90
2018-07-07T15:16:52.723Z,43.00
2018-07-07T15:19:22.364Z,41.80
2018-07-07T15:21:51.194Z,42.00
2018-07-07T15:24:21.795Z,40.00
2018-07-07T15:26:51.437Z,41.10
2018-07-07T15:29:21.140Z,41.60
2018-07-07T15:31:52.727Z,40.60
2018-07-07T15:34:21.834Z,40.90
2018-07-07T15:36:51.362Z,40.10
2018-07-07T15:39:20.282Z,42.30
2018-07-07T15:41:49.001Z,41.60
2018-07-07T15:44:17.766Z,41.80
2018-07-07T15:46:47.668Z,41.30
2018-07-07T15:49:16.714Z,41.70
2018-07-07T15:51:49.054Z,42.60
2018-07-07T15:54:21.826Z,42.00
2018-07-07T15:56:51.542Z,43.10
2018-07-07T15:59:21.142Z,42.80
2018-07-07T16:01:52.920Z,41.80
2018-07-07T16:04:21.582Z,42.00
2018-07-07T16:06:51.124Z,43.00
2018-07-07T16:09:21.263Z,42.30
2018-07-07T16:11:51.467Z,39.50
2018-07-07T16:14:20.364Z,43.60
2018-07-07T16:16:49.077Z,42.20
2018-07-07T16:19:21.025Z,43.20
2018-07-07T16:21:53.227Z,43.00
2018-07-07T16:24:22.717Z,43.60
2018-07-07T16:26:52.009Z,43.30
2018-07-07T16:29:21.963Z,42.60
2018-07-07T16:31:52.634Z,44.60
2018-07-07T16:34:23.388Z,43.20
2018-07-07T16:36:53.061Z,44.40
2018-07-07T16:39:23.777Z,44.40
2018-07-07T16:41:53.955Z,43.30
2018-07-07T16:44:24.366Z,43.80
2018-07-07T16:46:53.627Z,43.60
2018-07-07T16:49:22.862Z,42.90
2018-07-07T16:51:51.758Z,43.80
2018-07-07T16:54:22.539Z,42.60
2018-07-07T16:56:51.770Z,43.50
2018-07-07T16:59:21.436Z,42.80
2018-07-07T17:01:52.177Z,43.20
2018-07-07T17:04:21.295Z,42.40
2018-07-07T17:06:51.100Z,43.70
2018-07-07T17:09:20.802Z,42.60
2018-07-07T17:11:51.214Z,43.80
2018-07-07T17:14:21.558Z,43.20
2018-07-07T17:16:50.853Z,43.30
2018-07-07T17:19:25.870Z,43.30
2018-07-07T17:22:00.580Z,42.50
2018-07-07T17:24:33.344Z,42.00
2018-07-07T17:27:02.297Z,43.40
2018-07-07T17:29:31.110Z,43.40
2018-07-07T17:31:59.721Z,43.00
2018-07-07T17:34:29.478Z,43.30
2018-07-07T17:36:58.378Z,43.80
2018-07-07T17:39:27.524Z,42.90
2018-07-07T17:41:56.505Z,44.00
2018-07-07T17:44:25.417Z,43.60
2018-07-07T17:46:54.680Z,43.80
2018-07-07T17:49:23.941Z,44.00
2018-07-07T17:51:52.586Z,43.80
2018-07-07T17:54:21.749Z,44.00
2018-07-07T17:56:50.884Z,44.30
2018-07-07T17:59:19.602Z,43.50
2018-07-07T18:01:48.215Z,43.60
2018-07-07T18:04:16.771Z,43.60
2018-07-07T18:06:45.294Z,43.90
2018-07-07T18:09:14.045Z,43.40
2018-07-07T18:11:42.806Z,44.20
2018-07-07T18:14:11.402Z,43.90
2018-07-07T18:16:39.980Z,45.20
2018-07-07T18:19:09.487Z,45.20
2018-07-07T18:21:38.387Z,45.30
2018-07-07T18:24:07.472Z,45.60
2018-07-07T18:26:37.974Z,45.40
2018-07-07T18:29:06.940Z,45.50
2018-07-07T18:31:36.390Z,45.70
2018-07-07T18:34:06.334Z,45.90
2018-07-07T18:36:35.920Z,45.80
2018-07-07T18:39:04.681Z,46.30
2018-07-07T18:41:33.212Z,47.60
2018-07-07T18:44:01.836Z,49.00
2018-07-07T18:46:30.262Z,48.80
2018-07-07T18:48:58.901Z,48.60
2018-07-07T18:51:27.485Z,51.40
2018-07-07T18:53:56.363Z,51.10
2018-07-07T18:56:25.055Z,53.10
2018-07-07T18:58:53.757Z,50.70
2018-07-07T19:01:22.632Z,49.60
2018-07-07T19:03:51.559Z,48.20
2018-07-07T19:06:20.259Z,48.80
2018-07-07T19:08:48.730Z,48.10
2018-07-07T19:11:17.094Z,48.00
2018-07-07T19:13:45.596Z,48.00
2018-07-07T19:16:14.061Z,48.20
2018-07-07T19:18:42.944Z,47.50
2018-07-07T19:21:16.789Z,48.10
2018-07-07T19:23:50.506Z,47.50
2018-07-07T19:26:24.172Z,48.40
2018-07-07T19:28:52.798Z,48.80
2018-07-07T19:31:21.411Z,48.20
2018-07-07T19:33:55.145Z,47.90
2018-07-07T19:36:29.041Z,48.30
2018-07-07T19:38:57.505Z,48.10
2018-07-07T19:41:25.999Z,48.30
2018-07-07T19:43:54.586Z,48.60
2018-07-07T19:46:23.166Z,49.30
2018-07-07T19:48:51.860Z,48.50
2018-07-07T19:51:20.363Z,48.70
2018-07-07T19:53:49.194Z,48.80
2018-07-07T19:56:17.729Z,49.00
2018-07-07T19:58:46.241Z,49.60
2018-07-07T20:01:14.685Z,49.30
2018-07-07T20:03:43.528Z,48.70
2018-07-07T20:06:11.956Z,49.50
2018-07-07T20:08:40.485Z,49.60
2018-07-07T20:11:08.934Z,51.50
2018-07-07T20:13:37.500Z,51.50
2018-07-07T20:16:12.293Z,50.80
2018-07-07T20:18:57.320Z,50.80
2018-07-07T20:21:42.327Z,51.40
2018-07-07T20:24:10.831Z,51.20
2018-07-07T20:26:43.476Z,52.20
2018-07-07T20:29:11.880Z,52.20
2018-07-07T20:31:46.566Z,52.70
2018-07-07T20:34:15.091Z,52.50
2018-07-07T20:36:43.702Z,52.90
2018-07-07T20:39:12.241Z,53.20
2018-07-07T20:41:40.702Z,53.50
2018-07-07T20:44:09.219Z,53.90
2018-07-07T20:46:37.791Z,53.70
2018-07-07T20:49:06.373Z,53.90
2018-07-07T20:51:35.942Z,54.00
2018-07-07T20:54:04.285Z,54.20
2018-07-07T20:56:32.706Z,54.70
2018-07-07T20:59:01.089Z,54.60
2018-07-07T21:01:29.820Z,54.70
2018-07-07T21:03:58.645Z,54.70
2018-07-07T21:06:27.329Z,55.40
2018-07-07T21:08:56.772Z,55.40
2018-07-07T21:11:26.247Z,55.50
2018-07-07T21:13:56.895Z,55.90
2018-07-07T21:16:26.653Z,55.70
2018-07-07T21:18:57.912Z,55.50
2018-07-07T21:21:30.609Z,55.80
2018-07-07T21:24:01.689Z,56.00
2018-07-07T21:26:32.462Z,56.10
2018-07-07T21:29:01.114Z,56.00
2018-07-07T21:31:30.453Z,56.30
2018-07-07T21:33:58.960Z,57.10
2018-07-07T21:36:30.063Z,56.70
2018-07-07T21:38:59.772Z,56.80
2018-07-07T21:41:28.467Z,57.00
2018-07-07T21:43:57.186Z,57.30
2018-07-07T21:46:27.189Z,57.30
2018-07-07T21:48:55.865Z,57.50
2018-07-07T21:51:24.428Z,57.30
2018-07-07T21:53:53.210Z,57.40
2018-07-07T21:56:21.538Z,58.00
2018-07-07T21:58:54.473Z,57.70
2018-07-07T22:02:05.147Z,57.90
2018-07-07T22:04:38.879Z,58.30
2018-07-07T22:07:13.169Z,58.30
2018-07-07T22:09:42.574Z,58.20
2018-07-07T22:12:11.038Z,58.30
2018-07-07T22:14:39.457Z,58.60
2018-07-07T22:17:08.053Z,58.80
2018-07-07T22:19:36.522Z,59.00
2018-07-07T22:22:07.956Z,59.10
2018-07-07T22:24:36.600Z,59.00
2018-07-07T22:27:06.398Z,58.90
2018-07-07T22:29:35.926Z,59.10
2018-07-07T22:32:05.827Z,59.10
2018-07-07T22:34:38.386Z,59.40
2018-07-07T22:37:07.396Z,59.10
2018-07-07T22:39:38.105Z,59.40
2018-07-07T22:42:08.638Z,59.90
2018-07-07T22:44:37.780Z,59.60
2018-07-07T22:47:06.250Z,59.80
2018-07-07T22:49:34.705Z,60.10
2018-07-07T22:52:03.174Z,60.50
2018-07-07T22:54:31.590Z,60.40
2018-07-07T22:56:59.954Z,60.60
2018-07-07T22:59:28.339Z,60.50
2018-07-07T23:01:56.769Z,60.50
2018-07-07T23:04:25.347Z,60.10
2018-07-07T23:06:54.285Z,60.70
2018-07-07T23:09:22.789Z,60.80
2018-07-07T23:11:51.453Z,61.20
2018-07-07T23:14:20.177Z,61.10
2018-07-07T23:16:48.720Z,60.80
2018-07-07T23:19:17.269Z,60.90
2018-07-07T23:21:45.671Z,61.80
2018-07-07T23:24:14.201Z,61.70
2018-07-07T23:26:42.579Z,61.60
2018-07-07T23:29:10.993Z,61.80
2018-07-07T23:31:39.393Z,62.60
2018-07-07T23:34:07.914Z,62.20
2018-07-07T23:36:36.343Z,62.40
2018-07-07T23:39:05.434Z,62.40
2018-07-07T23:41:33.805Z,62.50
2018-07-07T23:44:02.204Z,62.40
2018-07-07T23:46:30.662Z,62.80
2018-07-07T23:48:59.036Z,62.50
2018-07-07T23:51:27.448Z,62.80
2018-07-07T23:53:56.072Z,63.20
2018-07-07T23:56:24.489Z,62.90
2018-07-07T23:58:53.152Z,62.60
